createdAt,value
2023-05-14T00:00:08.416Z,54.20
2023-05-14T00:02:39.322Z,54.16
2023-05-14T00:05:10.536Z,54.83
2023-05-14T00:07:39.127Z,55.18
2023-05-14T00:10:08.696Z,54.94
2023-05-14T00:12:37.388Z,55.58
2023-05-14T00:15:09.476Z,55.34
2023-05-14T00:17:38.357Z,55.53
2023-05-14T00:20:08.153Z,54.78
2023-05-14T00:22:38.340Z,55.11
2023-05-14T00:25:08.480Z,55.50
2023-05-14T00:27:37.886Z,55.33
2023-05-14T00:30:07.986Z,55.62
2023-05-14T00:32:36.636Z,55.00
2023-05-14T00:35:05.532Z,56.31
2023-05-14T00:37:34.189Z,56.19
2023-05-14T00:40:06.898Z,56.61
2023-05-14T00:42:35.765Z,56.75
2023-05-14T00:45:04.322Z,57.03
2023-05-14T00:47:35.369Z,57.06
2023-05-14T00:50:05.290Z,57.01
2023-05-14T00:52:34.290Z,57.25
2023-05-14T00:55:08.536Z,57.98
2023-05-14T00:57:37.789Z,58.29
2023-05-14T01:00:09.026Z,57.95
2023-05-14T01:02:37.923Z,57.93
2023-05-14T01:05:08.935Z,58.50
2023-05-14T01:07:43.009Z,58.26
2023-05-14T01:10:18.866Z,58.89
2023-05-14T01:12:54.570Z,58.64
2023-05-14T01:15:27.000Z,58.99
2023-05-14T01:17:58.094Z,59.54
2023-05-14T01:20:27.607Z,59.88
2023-05-14T01:22:57.624Z,59.81
2023-05-14T01:25:27.724Z,59.58
2023-05-14T01:28:02.881Z,59.37
2023-05-14T01:30:34.104Z,59.69
2023-05-14T01:33:07.453Z,60.34
2023-05-14T01:35:36.811Z,60.17
2023-05-14T01:38:09.162Z,60.28
2023-05-14T01:40:40.805Z,60.10
2023-05-14T01:43:10.097Z,59.98
2023-05-14T01:45:38.761Z,59.92
2023-05-14T01:48:07.885Z,60.06
2023-05-14T01:50:36.663Z,60.23
2023-05-14T01:53:06.709Z,60.59
2023-05-14T01:55:35.552Z,60.50
2023-05-14T01:58:04.138Z,59.81
2023-05-14T02:00:33.132Z,56.85
2023-05-14T02:03:01.825Z,54.59
2023-05-14T02:05:31.038Z,51.13
2023-05-14T02:07:59.500Z,52.04
2023-05-14T02:10:31.122Z,51.28
2023-05-14T02:12:59.663Z,49.11
2023-05-14T02:15:31.039Z,48.72
2023-05-14T02:18:00.478Z,48.45
2023-05-14T02:20:29.516Z,45.42
2023-05-14T02:22:58.391Z,46.01
2023-05-14T02:25:26.807Z,46.31
2023-05-14T02:27:56.725Z,45.99
2023-05-14T02:30:25.572Z,42.98
2023-05-14T02:32:54.448Z,44.93
2023-05-14T02:35:22.900Z,43.83
2023-05-14T02:37:51.528Z,50.16
2023-05-14T02:40:20.137Z,53.57
2023-05-14T02:42:49.380Z,53.78
2023-05-14T02:45:19.123Z,55.43
2023-05-14T02:47:47.820Z,56.88
2023-05-14T02:50:17.730Z,56.38
2023-05-14T02:52:48.164Z,56.34
2023-05-14T02:55:17.035Z,56.07
2023-05-14T02:57:45.513Z,57.48
2023-05-14T03:00:14.820Z,57.17
2023-05-14T03:02:45.634Z,57.29
2023-05-14T03:05:14.489Z,58.09
2023-05-14T03:07:43.106Z,57.55
2023-05-14T03:10:14.792Z,57.84
2023-05-14T03:12:43.619Z,58.41
2023-05-14T03:15:12.765Z,57.67
2023-05-14T03:17:41.434Z,57.28
2023-05-14T03:20:12.841Z,57.31
2023-05-14T03:22:41.421Z,58.24
2023-05-14T03:25:10.504Z,57.98
2023-05-14T03:27:39.069Z,58.16
2023-05-14T03:30:08.885Z,58.51
2023-05-14T03:32:39.002Z,58.77
2023-05-14T03:35:08.603Z,59.33
2023-05-14T03:37:38.637Z,58.88
2023-05-14T03:40:08.660Z,59.27
2023-05-14T03:42:38.514Z,58.36
2023-05-14T03:45:08.168Z,58.70
2023-05-14T03:47:38.569Z,58.83
2023-05-14T03:50:09.219Z,57.94
2023-05-14T03:52:39.159Z,57.50
2023-05-14T03:55:08.645Z,56.90
2023-05-14T03:57:37.976Z,55.79
2023-05-14T04:00:07.363Z,55.39
2023-05-14T04:02:46.162Z,56.08
2023-05-14T04:05:15.136Z,55.63
2023-05-14T04:07:45.922Z,55.84
2023-05-14T04:10:15.133Z,55.35
2023-05-14T04:12:43.483Z,56.73
2023-05-14T04:15:12.862Z,55.72
2023-05-14T04:17:42.060Z,57.03
2023-05-14T04:20:11.449Z,56.03
2023-05-14T04:22:39.894Z,55.68
2023-05-14T04:25:10.362Z,55.75
2023-05-14T04:27:38.657Z,55.66
2023-05-14T04:30:11.724Z,55.64
2023-05-14T04:32:40.126Z,55.08
2023-05-14T04:35:10.771Z,55.47
2023-05-14T04:37:39.370Z,55.92
2023-05-14T04:40:11.434Z,56.10
2023-05-14T04:42:40.375Z,56.17
2023-05-14T04:45:09.613Z,55.50
2023-05-14T04:47:38.148Z,55.59
2023-05-14T04:50:08.882Z,55.64
2023-05-14T04:52:37.340Z,55.16
2023-05-14T04:55:06.755Z,55.78
2023-05-14T04:57:36.876Z,55.31
2023-05-14T05:00:10.157Z,53.69
2023-05-14T05:02:38.679Z,54.36
2023-05-14T05:05:07.718Z,54.46
2023-05-14T05:07:36.382Z,53.90
2023-05-14T05:10:04.996Z,53.98
2023-05-14T05:12:36.543Z,53.62
2023-05-14T05:15:08.071Z,52.99
2023-05-14T05:17:38.342Z,53.11
2023-05-14T05:20:11.061Z,52.65
2023-05-14T05:22:39.537Z,52.26
2023-05-14T05:25:09.240Z,52.27
2023-05-14T05:27:41.538Z,52.15
2023-05-14T05:30:11.369Z,52.03
2023-05-14T05:32:39.705Z,51.57
2023-05-14T05:35:08.802Z,51.70
2023-05-14T05:37:37.149Z,51.60
2023-05-14T05:40:07.002Z,50.52
2023-05-14T05:42:35.580Z,50.33
2023-05-14T05:45:07.705Z,49.63
2023-05-14T05:47:36.743Z,50.52
2023-05-14T05:50:05.672Z,49.83
2023-05-14T05:52:34.308Z,49.18
2023-05-14T05:55:05.955Z,50.02
2023-05-14T05:57:36.432Z,49.55
2023-05-14T06:00:14.269Z,49.66
2023-05-14T06:02:44.428Z,49.87
2023-05-14T06:05:13.345Z,49.73
2023-05-14T06:07:41.817Z,49.44
2023-05-14T06:10:10.383Z,49.30
2023-05-14T06:12:39.190Z,49.16
2023-05-14T06:15:11.633Z,49.14
2023-05-14T06:17:40.552Z,48.70
2023-05-14T06:20:09.981Z,48.76
2023-05-14T06:22:38.937Z,49.09
2023-05-14T06:25:08.114Z,48.54
2023-05-14T06:27:36.750Z,47.56
2023-05-14T06:30:09.159Z,47.41
2023-05-14T06:32:39.192Z,47.17
2023-05-14T06:35:08.963Z,47.19
2023-05-14T06:37:37.654Z,46.42
2023-05-14T06:40:07.491Z,45.31
2023-05-14T06:42:38.902Z,43.99
2023-05-14T06:45:08.662Z,42.84
2023-05-14T06:47:38.603Z,43.76
2023-05-14T06:50:09.512Z,42.20
2023-05-14T06:52:43.652Z,42.86
2023-05-14T06:55:12.185Z,42.66
2023-05-14T06:57:41.052Z,42.39
2023-05-14T07:00:10.564Z,42.30
2023-05-14T07:02:40.372Z,41.12
2023-05-14T07:05:09.816Z,39.50
2023-05-14T07:07:38.180Z,39.46
2023-05-14T07:10:08.230Z,39.74
2023-05-14T07:12:36.639Z,40.21
2023-05-14T07:15:05.880Z,40.76
2023-05-14T07:17:35.728Z,40.67
2023-05-14T07:20:07.104Z,40.67
2023-05-14T07:22:35.768Z,39.86
2023-05-14T07:25:06.539Z,41.19
2023-05-14T07:27:37.451Z,39.56
2023-05-14T07:30:09.930Z,38.57
2023-05-14T07:32:38.703Z,39.63
2023-05-14T07:35:09.717Z,39.67
2023-05-14T07:37:38.603Z,40.57
2023-05-14T07:40:08.414Z,41.64
2023-05-14T07:42:40.099Z,42.25
2023-05-14T07:45:10.218Z,42.25
2023-05-14T07:47:40.015Z,41.46
2023-05-14T07:50:11.527Z,41.68
2023-05-14T07:52:40.070Z,41.27
2023-05-14T07:55:09.226Z,41.23
2023-05-14T07:57:38.555Z,41.03
2023-05-14T08:00:09.166Z,41.20
2023-05-14T08:02:44.362Z,39.94
2023-05-14T08:05:14.686Z,39.89
2023-05-14T08:07:43.467Z,40.01
2023-05-14T08:10:12.343Z,40.08
2023-05-14T08:12:40.945Z,38.77
2023-05-14T08:15:10.629Z,38.90
2023-05-14T08:17:39.406Z,37.91
2023-05-14T08:20:12.070Z,39.68
2023-05-14T08:22:41.954Z,39.74
2023-05-14T08:25:11.073Z,40.12
2023-05-14T08:27:39.556Z,38.94
2023-05-14T08:30:09.229Z,38.10
2023-05-14T08:32:38.767Z,37.71
2023-05-14T08:35:11.392Z,37.21
2023-05-14T08:37:41.649Z,37.94
2023-05-14T08:40:11.084Z,40.00
2023-05-14T08:42:41.966Z,41.78
2023-05-14T08:45:15.004Z,42.43
2023-05-14T08:47:44.400Z,42.76
2023-05-14T08:50:12.928Z,43.75
2023-05-14T08:52:43.029Z,44.06
2023-05-14T08:55:13.200Z,43.46
2023-05-14T08:57:41.802Z,43.68
2023-05-14T09:00:15.612Z,43.40
2023-05-14T09:02:48.631Z,43.63
2023-05-14T09:05:18.947Z,43.51
2023-05-14T09:07:50.447Z,42.52
2023-05-14T09:10:19.007Z,42.32
2023-05-14T09:12:49.296Z,41.58
2023-05-14T09:15:17.926Z,41.62
2023-05-14T09:17:48.288Z,41.09
2023-05-14T09:20:17.340Z,41.47
2023-05-14T09:22:45.793Z,42.06
2023-05-14T09:25:15.794Z,40.66
2023-05-14T09:27:44.179Z,40.84
2023-05-14T09:30:17.579Z,39.71
2023-05-14T09:32:46.426Z,39.51
2023-05-14T09:35:17.764Z,39.80
2023-05-14T09:37:48.261Z,40.37
2023-05-14T09:40:19.525Z,41.75
2023-05-14T09:42:50.579Z,41.70
2023-05-14T09:45:19.208Z,41.41
2023-05-14T09:47:47.869Z,40.52
2023-05-14T09:50:18.661Z,41.06
2023-05-14T09:52:47.064Z,40.40
2023-05-14T09:55:17.115Z,40.75
2023-05-14T09:57:47.673Z,39.24
2023-05-14T10:00:17.184Z,39.53
2023-05-14T10:02:47.320Z,38.20
2023-05-14T10:05:16.317Z,38.79
2023-05-14T10:07:49.233Z,40.13
2023-05-14T10:10:21.152Z,39.96
2023-05-14T10:12:53.518Z,39.68
2023-05-14T10:15:25.094Z,39.25
2023-05-14T10:17:59.255Z,39.14
2023-05-14T10:20:28.506Z,39.02
2023-05-14T10:22:57.372Z,39.42
2023-05-14T10:25:27.389Z,38.62
2023-05-14T10:27:56.099Z,37.56
2023-05-14T10:30:25.390Z,38.47
2023-05-14T10:33:08.536Z,38.03
2023-05-14T10:35:52.461Z,39.08
2023-05-14T10:38:24.462Z,38.39
2023-05-14T10:40:57.025Z,39.30
2023-05-14T10:43:26.834Z,38.38
2023-05-14T10:45:55.348Z,38.10
2023-05-14T10:48:23.996Z,38.70
2023-05-14T10:50:52.843Z,38.19
2023-05-14T10:53:22.473Z,38.07
2023-05-14T10:55:50.851Z,38.26
2023-05-14T10:58:20.735Z,39.31
2023-05-14T11:00:49.881Z,38.99
2023-05-14T11:03:19.763Z,38.86
2023-05-14T11:05:48.364Z,39.02
2023-05-14T11:08:19.373Z,39.00
2023-05-14T11:10:47.950Z,38.33
2023-05-14T11:13:18.919Z,38.71
2023-05-14T11:15:49.460Z,38.94
2023-05-14T11:18:28.093Z,38.31
2023-05-14T11:20:59.815Z,38.54
2023-05-14T11:23:29.065Z,38.18
2023-05-14T11:25:58.018Z,38.03
2023-05-14T11:28:27.979Z,38.41
2023-05-14T11:30:57.735Z,39.06
2023-05-14T11:33:29.043Z,38.19
2023-05-14T11:35:57.508Z,38.64
2023-05-14T11:38:25.877Z,38.36
2023-05-14T11:40:55.115Z,38.94
2023-05-14T11:43:23.960Z,38.28
2023-05-14T11:45:57.676Z,38.33
2023-05-14T11:48:27.605Z,37.85
2023-05-14T11:50:56.047Z,38.29
2023-05-14T11:53:31.694Z,37.51
2023-05-14T11:56:00.271Z,37.36
2023-05-14T11:58:28.743Z,37.93
2023-05-14T12:01:01.686Z,37.58
2023-05-14T12:03:33.086Z,37.59
2023-05-14T12:06:03.668Z,37.92
2023-05-14T12:08:33.112Z,37.84
2023-05-14T12:11:02.153Z,37.33
2023-05-14T12:13:31.373Z,38.41
2023-05-14T12:16:02.398Z,38.03
2023-05-14T12:18:34.003Z,38.13
2023-05-14T12:21:08.469Z,37.85
2023-05-14T12:23:40.211Z,37.40
2023-05-14T12:26:10.418Z,36.78
2023-05-14T12:28:43.647Z,37.55
2023-05-14T12:31:12.812Z,37.96
2023-05-14T12:33:42.663Z,38.06
2023-05-14T12:36:21.339Z,38.07
2023-05-14T12:38:51.289Z,38.08
2023-05-14T12:41:19.959Z,37.96
2023-05-14T12:43:50.063Z,38.08
2023-05-14T12:46:18.568Z,38.18
2023-05-14T12:48:49.042Z,39.50
2023-05-14T12:51:18.757Z,39.92
2023-05-14T12:53:47.224Z,39.89
2023-05-14T12:56:16.152Z,40.51
2023-05-14T12:58:46.701Z,40.82
2023-05-14T13:01:15.302Z,41.08
2023-05-14T13:03:43.835Z,40.97
2023-05-14T13:06:14.067Z,41.18
2023-05-14T13:08:42.750Z,40.66
2023-05-14T13:11:11.631Z,41.07
2023-05-14T13:13:40.176Z,41.61
2023-05-14T13:16:16.884Z,41.49
2023-05-14T13:18:46.150Z,41.37
2023-05-14T13:21:16.054Z,41.79
2023-05-14T13:23:44.655Z,41.53
2023-05-14T13:26:13.110Z,41.70
2023-05-14T13:28:41.751Z,42.26
2023-05-14T13:31:12.118Z,42.42
2023-05-14T13:33:42.891Z,42.34
2023-05-14T13:36:14.880Z,42.32
2023-05-14T13:38:45.902Z,42.05
2023-05-14T13:41:17.056Z,42.12
2023-05-14T13:43:45.576Z,42.37
2023-05-14T13:46:13.934Z,41.93
2023-05-14T13:48:42.526Z,41.49
2023-05-14T13:51:10.861Z,42.09
2023-05-14T13:53:39.968Z,42.30
2023-05-14T13:56:10.042Z,41.62
2023-05-14T13:58:38.542Z,41.72
2023-05-14T14:01:07.490Z,41.97
2023-05-14T14:03:36.229Z,41.84
2023-05-14T14:06:05.015Z,41.89
2023-05-14T14:08:33.651Z,42.11
2023-05-14T14:11:02.236Z,41.91
2023-05-14T14:13:32.184Z,41.71
2023-05-14T14:16:00.576Z,41.93
2023-05-14T14:18:31.594Z,42.39
2023-05-14T14:21:00.268Z,41.95
2023-05-14T14:23:28.730Z,42.17
2023-05-14T14:25:57.426Z,41.46
2023-05-14T14:28:26.237Z,41.84
2023-05-14T14:30:56.323Z,41.74
2023-05-14T14:33:24.960Z,42.11
2023-05-14T14:35:53.566Z,41.78
2023-05-14T14:38:21.857Z,41.92
2023-05-14T14:40:50.460Z,42.49
2023-05-14T14:43:19.132Z,42.23
2023-05-14T14:45:48.969Z,42.68
2023-05-14T14:48:28.271Z,42.58
2023-05-14T14:50:56.906Z,42.74
2023-05-14T14:53:26.097Z,42.21
2023-05-14T14:55:55.160Z,42.02
2023-05-14T14:58:23.878Z,41.59
2023-05-14T15:00:53.973Z,40.65
2023-05-14T15:03:22.921Z,41.13
2023-05-14T15:05:53.604Z,41.32
2023-05-14T15:08:25.793Z,41.06
2023-05-14T15:10:54.382Z,40.30
2023-05-14T15:13:24.108Z,41.88
2023-05-14T15:15:55.773Z,42.30
2023-05-14T15:18:24.343Z,42.20
2023-05-14T15:20:55.793Z,42.65
2023-05-14T15:23:24.402Z,42.92
2023-05-14T15:25:52.845Z,43.40
2023-05-14T15:28:21.425Z,43.81
2023-05-14T15:30:50.372Z,43.57
2023-05-14T15:33:23.671Z,43.32
2023-05-14T15:35:53.802Z,43.39
2023-05-14T15:38:22.207Z,43.75
2023-05-14T15:40:52.698Z,43.40
2023-05-14T15:43:23.206Z,43.44
2023-05-14T15:45:53.509Z,43.28
2023-05-14T15:48:21.949Z,43.56
2023-05-14T15:50:51.782Z,43.96
2023-05-14T15:53:21.854Z,44.05
2023-05-14T15:55:50.520Z,44.55
2023-05-14T15:58:18.925Z,44.72
2023-05-14T16:00:47.485Z,44.79
2023-05-14T16:03:15.920Z,45.02
2023-05-14T16:05:45.197Z,45.02
2023-05-14T16:08:13.605Z,45.03
2023-05-14T16:10:43.728Z,45.19
2023-05-14T16:13:12.196Z,45.17
2023-05-14T16:15:41.121Z,45.43
2023-05-14T16:18:09.785Z,45.13
2023-05-14T16:20:38.354Z,45.87
2023-05-14T16:23:06.690Z,45.37
2023-05-14T16:25:35.175Z,45.29
2023-05-14T16:28:05.569Z,45.81
2023-05-14T16:30:34.374Z,45.31
2023-05-14T16:33:02.718Z,45.48
2023-05-14T16:35:31.257Z,45.82
2023-05-14T16:37:59.850Z,45.96
2023-05-14T16:40:28.380Z,46.27
2023-05-14T16:42:56.938Z,46.10
2023-05-14T16:45:29.133Z,45.75
2023-05-14T16:47:58.478Z,45.48
2023-05-14T16:50:26.977Z,46.26
2023-05-14T16:52:55.633Z,46.17
2023-05-14T16:55:24.486Z,46.12
2023-05-14T16:57:53.059Z,45.71
2023-05-14T17:00:21.623Z,45.94
2023-05-14T17:02:54.319Z,46.29
2023-05-14T17:05:23.164Z,45.92
2023-05-14T17:07:51.989Z,45.97
2023-05-14T17:10:20.634Z,46.11
2023-05-14T17:12:48.998Z,46.24
2023-05-14T17:15:17.630Z,45.74
2023-05-14T17:17:46.416Z,46.30
2023-05-14T17:20:17.097Z,46.19
2023-05-14T17:22:48.389Z,45.79
2023-05-14T17:25:20.127Z,45.97
2023-05-14T17:27:49.033Z,46.34
2023-05-14T17:30:17.674Z,46.05
2023-05-14T17:32:51.101Z,46.09
2023-05-14T17:35:21.528Z,46.43
2023-05-14T17:37:50.090Z,46.23
2023-05-14T17:40:18.709Z,46.34
2023-05-14T17:42:47.197Z,46.89
2023-05-14T17:45:20.615Z,47.08
2023-05-14T17:47:50.550Z,46.79
2023-05-14T17:50:19.294Z,47.14
2023-05-14T17:52:49.186Z,47.16
2023-05-14T17:55:19.323Z,47.29
2023-05-14T17:57:49.559Z,47.30
2023-05-14T18:00:18.350Z,47.83
2023-05-14T18:02:47.278Z,48.24
2023-05-14T18:05:15.727Z,47.80
2023-05-14T18:07:44.186Z,47.65
2023-05-14T18:10:14.243Z,47.95
2023-05-14T18:12:44.641Z,47.63
2023-05-14T18:15:15.364Z,48.38
2023-05-14T18:17:43.930Z,48.55
2023-05-14T18:20:15.991Z,48.23
2023-05-14T18:22:47.643Z,49.10
2023-05-14T18:25:17.781Z,49.01
2023-05-14T18:27:47.043Z,48.83
2023-05-14T18:30:17.530Z,48.78
2023-05-14T18:32:46.695Z,49.22
2023-05-14T18:35:15.332Z,49.31
2023-05-14T18:37:43.847Z,49.92
2023-05-14T18:40:16.869Z,48.97
2023-05-14T18:42:48.231Z,49.68
2023-05-14T18:45:16.612Z,49.59
2023-05-14T18:47:45.519Z,49.17
2023-05-14T18:50:14.219Z,49.75
2023-05-14T18:52:42.755Z,49.37
2023-05-14T18:55:11.289Z,50.08
2023-05-14T18:57:41.053Z,49.37
2023-05-14T19:00:12.805Z,49.97
2023-05-14T19:02:41.566Z,50.31
2023-05-14T19:05:10.252Z,49.63
2023-05-14T19:07:43.034Z,50.35
2023-05-14T19:10:11.935Z,50.53
2023-05-14T19:12:40.268Z,50.37
2023-05-14T19:15:11.597Z,50.96
2023-05-14T19:17:43.066Z,51.39
2023-05-14T19:20:12.663Z,51.39
2023-05-14T19:22:41.248Z,51.07
2023-05-14T19:25:11.217Z,51.11
2023-05-14T19:27:39.856Z,50.29
2023-05-14T19:30:14.774Z,50.84
2023-05-14T19:32:43.544Z,51.36
2023-05-14T19:35:12.200Z,51.24
2023-05-14T19:37:43.556Z,50.93
2023-05-14T19:40:12.581Z,50.87
2023-05-14T19:42:41.033Z,51.38
2023-05-14T19:45:10.571Z,50.96
2023-05-14T19:47:40.597Z,51.59
2023-05-14T19:50:10.144Z,51.22
2023-05-14T19:52:39.004Z,51.68
2023-05-14T19:55:08.187Z,51.51
2023-05-14T19:57:40.019Z,51.91
2023-05-14T20:00:12.250Z,51.87
2023-05-14T20:02:43.274Z,52.11
2023-05-14T20:05:12.351Z,51.90
2023-05-14T20:07:40.950Z,52.00
2023-05-14T20:10:10.509Z,52.15
2023-05-14T20:12:38.880Z,51.67
2023-05-14T20:15:08.493Z,51.83
2023-05-14T20:17:39.598Z,52.07
2023-05-14T20:20:11.945Z,51.81
2023-05-14T20:22:40.427Z,52.15
2023-05-14T20:25:10.174Z,52.20
2023-05-14T20:27:41.172Z,52.54
2023-05-14T20:30:10.745Z,52.67
2023-05-14T20:32:39.109Z,52.09
2023-05-14T20:35:10.034Z,52.14
2023-05-14T20:37:38.497Z,52.92
2023-05-14T20:40:10.530Z,53.42
2023-05-14T20:42:39.467Z,52.52
2023-05-14T20:45:08.934Z,52.75
2023-05-14T20:47:37.374Z,53.04
2023-05-14T20:50:06.340Z,52.41
2023-05-14T20:52:36.646Z,53.19
2023-05-14T20:55:05.625Z,53.57
2023-05-14T20:57:35.386Z,53.63
2023-05-14T21:00:07.088Z,53.43
2023-05-14T21:02:39.451Z,53.84
2023-05-14T21:05:08.844Z,53.88
2023-05-14T21:07:39.463Z,54.19
2023-05-14T21:10:09.898Z,53.98
2023-05-14T21:12:42.852Z,54.28
2023-05-14T21:15:12.981Z,54.79
2023-05-14T21:17:41.458Z,54.23
2023-05-14T21:20:12.026Z,54.84
2023-05-14T21:22:41.936Z,54.57
2023-05-14T21:25:13.339Z,54.84
2023-05-14T21:27:42.166Z,54.75
2023-05-14T21:30:14.392Z,55.23
2023-05-14T21:32:43.078Z,55.30
2023-05-14T21:35:11.764Z,54.97
2023-05-14T21:37:41.982Z,55.30
2023-05-14T21:40:14.026Z,55.04
2023-05-14T21:42:42.633Z,55.24
2023-05-14T21:45:11.654Z,55.37
2023-05-14T21:47:43.401Z,55.14
2023-05-14T21:50:13.169Z,55.94
2023-05-14T21:52:43.022Z,56.17
2023-05-14T21:55:12.006Z,55.85
2023-05-14T21:57:40.439Z,55.39
2023-05-14T22:00:13.270Z,56.41
2023-05-14T22:02:43.941Z,56.48
2023-05-14T22:05:12.577Z,56.59
2023-05-14T22:07:42.648Z,56.02
2023-05-14T22:10:12.020Z,57.04
2023-05-14T22:12:40.570Z,57.03
2023-05-14T22:15:10.277Z,56.99
2023-05-14T22:17:39.171Z,56.73
2023-05-14T22:20:09.567Z,57.56
2023-05-14T22:22:38.504Z,57.78
2023-05-14T22:25:09.630Z,57.94
2023-05-14T22:27:38.301Z,57.51
2023-05-14T22:30:08.138Z,57.72
2023-05-14T22:32:36.645Z,58.22
2023-05-14T22:35:05.527Z,57.83
2023-05-14T22:37:34.158Z,58.79
2023-05-14T22:40:05.155Z,58.27
2023-05-14T22:42:35.535Z,58.45
2023-05-14T22:45:04.137Z,58.79
2023-05-14T22:47:33.621Z,59.10
2023-05-14T22:50:02.241Z,59.11
2023-05-14T22:52:32.823Z,59.45
2023-05-14T22:55:01.818Z,59.86
2023-05-14T22:57:32.831Z,59.43
2023-05-14T23:00:02.650Z,59.74
2023-05-14T23:02:35.393Z,59.54
2023-05-14T23:05:04.020Z,59.71
2023-05-14T23:07:32.665Z,59.56
2023-05-14T23:10:02.203Z,60.19
2023-05-14T23:12:33.224Z,60.82
2023-05-14T23:15:03.414Z,61.24
2023-05-14T23:17:35.862Z,61.21
2023-05-14T23:20:06.120Z,61.70
2023-05-14T23:22:34.910Z,61.80
2023-05-14T23:25:06.372Z,62.22
2023-05-14T23:27:35.216Z,62.29
2023-05-14T23:30:06.016Z,62.76
2023-05-14T23:32:34.924Z,63.43
2023-05-14T23:35:03.438Z,63.76
2023-05-14T23:37:33.829Z,64.05
2023-05-14T23:40:02.722Z,64.95
2023-05-14T23:42:36.039Z,64.67
2023-05-14T23:45:06.602Z,64.51
2023-05-14T23:47:35.569Z,65.02
2023-05-14T23:50:04.701Z,65.20
2023-05-14T23:52:33.323Z,65.55
2023-05-14T23:55:01.944Z,65.10
2023-05-14T23:57:33.456Z,65.19
